Time;durP1;ratioP1;P1;durP2;ratioP2;P2;SDS_P1;SDS_P2;PMS_P1;PMS_P2;Temp;Humidity;BMP_temperature;BMP_pressure;BME280_temperature;BME280_humidity;BME280_pressure;Samples;Min_cycle;Max_cycle;Signal;HPM_P1;HPM_P2
2021/10/16 00:01:01;;;;;;;15.68;8.88;;;;;;;5.65;76.64;100538.37;2088976;81;30036;-68
2021/10/16 00:04:07;;;;;;;12.63;7.87;;;;;;;5.62;76.71;100538.45;2085253;83;27784;-68
2021/10/16 00:07:13;;;;;;;14.20;7.95;;;;;;;5.60;76.70;100534.95;2085578;83;28675;-67
2021/10/16 00:10:18;;;;;;;13.75;7.62;;;;;;;5.57;76.68;100541.23;2096083;82;31069;-68
2021/10/16 00:13:24;;;;;;;19.23;9.03;;;;;;;5.54;76.73;100538.64;2128872;81;33809;-66
2021/10/16 00:16:27;;;;;;;14.43;9.78;;;;;;;5.51;76.74;100538.72;2158932;81;28935;-64
2021/10/16 00:19:31;;;;;;;16.40;8.90;;;;;;;5.50;76.93;100544.08;2108998;83;27706;-65
2021/10/16 00:22:36;;;;;;;15.38;7.97;;;;;;;5.48;76.92;100539.67;2104509;83;28704;-66
2021/10/16 00:25:43;;;;;;;13.25;8.63;;;;;;;5.46;76.90;100544.63;2103670;83;32014;-66
2021/10/16 00:28:49;;;;;;;50.15;31.60;;;;;;;5.43;77.10;100552.19;2047936;83;32973;-65
2021/10/16 00:31:52;;;;;;;;;;;;;;;5.42;76.94;100553.57;2165985;81;29378;-67
2021/10/16 00:35:00;;;;;;;21.82;12.53;;;;;;;5.38;77.00;100555.41;2158952;81;27872;-65
2021/10/16 00:38:05;;;;;;;14.95;10.20;;;;;;;5.36;77.08;100558.58;2141437;81;29690;-68
2021/10/16 00:41:14;;;;;;;17.80;9.55;;;;;;;5.32;76.91;100555.10;2159845;81;31014;-65
2021/10/16 00:47:34;;;;;;;;;;;;;;;5.26;76.99;100560.58;2001035;87;29365;-66
2021/10/16 00:50:40;;;;;;;16.90;9.40;;;;;;;5.23;76.98;100557.09;1972072;87;28002;-67
2021/10/16 00:53:46;;;;;;;15.95;10.48;;;;;;;5.20;77.05;100556.73;1951102;88;28684;-66
2021/10/16 00:56:53;;;;;;;19.23;10.50;;;;;;;5.17;77.09;100562.10;1962871;88;31065;-66
2021/10/16 00:59:59;;;;;;;14.95;9.10;;;;;;;5.15;77.14;100566.14;2004428;86;33039;-66
2021/10/16 01:03:05;;;;;;;17.30;10.50;;;;;;;5.13;77.12;100559.13;2061454;85;30176;-64
2021/10/16 01:06:10;;;;;;;21.07;10.68;;;;;;;5.11;77.10;100563.59;2064418;85;27715;-64
2021/10/16 01:09:19;;;;;;;15.58;10.40;;;;;;;5.10;77.04;100564.50;2062624;85;28702;-66
2021/10/16 01:12:24;;;;;;;18.02;10.00;;;;;;;5.07;77.03;100569.41;2041560;85;31081;-64
2021/10/16 01:15:29;;;;;;;;;;;;;;;5.04;77.10;100563.30;1994045;87;33822;-65
2021/10/16 01:18:35;;;;;;;17.20;9.33;;;;;;;5.00;77.30;100567.34;1994242;86;30152;-64
2021/10/16 01:21:48;;;;;;;18.25;11.10;;;;;;;4.97;77.27;100570.53;2003328;86;27857;-65
2021/10/16 01:24:54;;;;;;;23.25;11.48;;;;;;;4.94;77.54;100564.84;2061299;84;29450;-65
2021/10/16 01:28:00;;;;;;;16.42;10.75;;;;;;;4.94;77.59;100575.46;2034804;85;31137;-66
2021/10/16 01:31:06;;;;;;;19.37;10.40;;;;;;;4.94;77.68;100573.25;2054105;85;33041;-66
2021/10/16 01:34:11;;;;;;;;;;;;;;;4.93;77.65;100569.73;2069523;85;30183;-64
2021/10/16 01:37:14;;;;;;;14.07;9.60;;;;;;;4.93;77.66;100563.09;2058570;85;27845;-64
2021/10/16 01:40:20;;;;;;;17.85;9.83;;;;;;;4.91;77.69;100566.23;2003849;86;28768;-64
2021/10/16 01:43:26;;;;;;;16.37;9.25;;;;;;;4.92;77.95;100569.75;2013653;86;31052;-66
2021/10/16 01:46:32;;;;;;;15.68;10.32;;;;;;;4.92;78.03;100572.41;2016273;85;33179;-64
2021/10/16 01:49:37;;;;;;;15.18;10.28;;;;;;;4.94;78.03;100570.59;2061543;84;30032;-65
2021/10/16 01:52:42;;;;;;;15.88;9.45;;;;;;;4.94;78.07;100573.25;2133310;81;27843;-65
2021/10/16 01:55:48;;;;;;;21.42;11.35;;;;;;;4.93;77.98;100576.37;2168345;81;28881;-65
2021/10/16 01:58:52;;;;;;;;;;;;;;;4.92;78.06;100569.31;2058229;85;31056;-64
2021/10/16 02:01:58;;;;;;;16.87;11.28;;;;;;;4.92;78.06;100574.62;2061812;85;33947;-65
2021/10/16 02:05:04;;;;;;;16.82;9.48;;;;;;;4.90;78.13;100568.47;2042314;84;29356;-64
2021/10/16 02:08:10;;;;;;;22.50;9.73;;;;;;;4.88;77.98;100567.62;2095530;83;27753;-65
2021/10/16 02:11:15;;;;;;;18.90;10.08;;;;;;;4.86;78.11;100574.30;2089031;83;28657;-66
2021/10/16 02:14:17;;;;;;;18.90;10.20;;;;;;;4.84;78.08;100564.17;2159078;81;31316;-66
2021/10/16 02:17:26;;;;;;;21.50;9.98;;;;;;;4.85;78.28;100566.36;2149439;81;33772;-65
2021/10/16 02:20:28;;;;;;;23.83;10.13;;;;;;;4.84;78.10;100571.24;2123512;81;29364;-65
2021/10/16 02:23:33;;;;;;;22.30;11.48;;;;;;;4.82;78.19;100572.61;2123560;81;27724;-65
2021/10/16 02:26:36;;;;;;;21.93;10.72;;;;;;;4.80;78.23;100577.08;2125067;81;28714;-65
2021/10/16 02:29:41;;;;;;;21.33;11.08;;;;;;;4.81;78.39;100573.95;2156985;81;31426;-69
2021/10/16 02:32:46;;;;;;;12.82;9.85;;;;;;;4.81;78.36;100573.95;2151237;81;33015;-66
2021/10/16 02:35:51;;;;;;;21.97;10.58;;;;;;;4.79;78.38;100577.98;2156450;81;29344;-65
2021/10/16 02:38:55;;;;;;;17.27;9.50;;;;;;;4.78;78.33;100584.20;2133011;81;27880;-66
2021/10/16 02:42:01;;;;;;;20.55;10.98;;;;;;;4.78;78.32;100587.32;2136879;81;28713;-66
2021/10/16 02:45:04;;;;;;;17.67;9.50;;;;;;;4.75;78.17;100586.91;2164372;81;31030;-66
2021/10/16 02:48:10;;;;;;;15.30;10.10;;;;;;;4.75;78.25;100588.70;2164893;81;33801;-66
2021/10/16 02:51:16;;;;;;;16.75;10.28;;;;;;;4.72;78.23;100600.23;2166523;81;30165;-65
2021/10/16 02:54:21;;;;;;;18.17;9.93;;;;;;;4.69;78.20;100599.86;2135308;82;27866;-65
2021/10/16 02:57:27;;;;;;;17.35;10.25;;;;;;;4.66;78.04;100603.89;2166400;81;28807;-64
2021/10/16 03:00:32;;;;;;;18.35;9.80;;;;;;;4.64;78.04;100603.05;2139982;81;31059;-65
2021/10/16 03:03:37;;;;;;;17.73;11.43;;;;;;;4.61;78.04;100606.22;2074823;83;33756;-65
2021/10/16 03:06:43;;;;;;;14.75;9.60;;;;;;;4.59;78.12;100608.92;2091220;83;29474;-65
2021/10/16 03:09:46;;;;;;;15.50;9.70;;;;;;;4.57;78.15;100616.03;2138366;81;27914;-65
2021/10/16 03:12:52;;;;;;;13.60;9.15;;;;;;;4.53;78.17;100615.23;2162118;81;29550;-65
2021/10/16 03:15:54;;;;;;;18.12;11.88;;;;;;;4.52;78.19;100621.87;2167857;81;31029;-64
2021/10/16 03:18:57;;;;;;;17.85;11.03;;;;;;;4.48;78.16;100627.70;2167173;81;34201;-66
2021/10/16 03:22:01;;;;;;;17.85;11.50;;;;;;;4.45;78.23;100628.22;2157090;81;30342;-65
2021/10/16 03:25:05;;;;;;;13.80;9.93;;;;;;;4.42;78.25;100631.78;2128603;82;27768;-66
2021/10/16 03:28:10;;;;;;;16.42;10.40;;;;;;;4.41;78.24;100632.68;2126682;81;28705;-65
2021/10/16 03:31:12;;;;;;;23.83;10.38;;;;;;;4.38;78.25;100631.44;2126872;82;31947;-66
2021/10/16 03:34:18;;;;;;;25.20;12.65;;;;;;;4.37;78.31;100632.34;2087424;82;34224;-66
2021/10/16 03:37:23;;;;;;;22.45;12.35;;;;;;;4.35;78.48;100635.00;2092413;83;30127;-66
2021/10/16 03:40:29;;;;;;;28.87;19.67;;;;;;;4.35;78.66;100640.30;2095494;83;27751;-65
2021/10/16 03:43:33;;;;;;;16.10;11.68;;;;;;;4.34;78.59;100635.91;2143224;81;28745;-66
2021/10/16 03:46:39;;;;;;;;;;;;;;;4.34;78.65;100634.58;2169111;81;31291;-65
2021/10/16 03:49:44;;;;;;;22.25;12.40;;;;;;;4.34;78.55;100634.58;2165552;81;32951;-65
2021/10/16 03:52:50;;;;;;;25.75;12.78;;;;;;;4.32;78.61;100639.03;2085469;83;30213;-64
2021/10/16 03:55:56;;;;;;;19.87;11.48;;;;;;;4.31;78.65;100644.37;2115328;83;27815;-64
2021/10/16 03:58:58;;;;;;;22.05;12.53;;;;;;;4.31;78.62;100641.72;2113812;82;29661;-65
2021/10/16 04:02:05;;;;;;;22.42;11.93;;;;;;;4.30;78.93;100642.62;2109246;83;31111;-65
2021/10/16 04:05:10;;;;;;;18.07;10.75;;;;;;;4.28;78.66;100640.02;2107706;82;33849;-65
2021/10/16 04:08:14;;;;;;;22.07;9.35;;;;;;;4.28;78.83;100646.64;2076921;83;30670;-65
2021/10/16 04:11:19;;;;;;;22.00;10.38;;;;;;;4.27;78.92;100654.17;2089716;83;28122;-66
2021/10/16 04:14:25;;;;;;;17.35;9.25;;;;;;;4.27;78.90;100651.52;2113341;82;28681;-66
2021/10/16 04:17:30;;;;;;;11.78;8.58;;;;;;;4.28;78.72;100659.91;2125116;81;31250;-65
2021/10/16 04:20:34;;;;;;;12.78;9.45;;;;;;;4.26;78.72;100657.27;2108027;81;33057;-65
2021/10/16 04:23:39;;;;;;;13.55;8.38;;;;;;;4.31;78.89;100664.27;2116081;82;29386;-65
2021/10/16 04:26:43;;;;;;;;;;;;;;;4.34;78.96;100666.88;2115717;82;28492;-65
2021/10/16 04:29:49;;;;;;;15.73;8.00;;;;;;;4.41;79.20;100667.17;2107916;82;29455;-64
2021/10/16 04:32:55;;;;;;;17.07;8.00;;;;;;;4.47;79.48;100675.02;2127657;81;31023;-65
2021/10/16 04:36:03;;;;;;;12.80;7.78;;;;;;;4.58;79.68;100680.14;2092311;83;34163;-65
2021/10/16 04:39:05;;;;;;;15.13;8.25;;;;;;;4.70;79.91;100679.89;2060750;84;30020;-67
2021/10/16 04:42:12;;;;;;;15.50;7.85;;;;;;;4.85;80.27;100674.75;2105560;83;27962;-66
2021/10/16 04:45:18;;;;;;;16.25;8.43;;;;;;;4.99;80.39;100673.12;2105586;82;28669;-66
2021/10/16 04:48:23;;;;;;;17.48;8.75;;;;;;;5.14;80.40;100677.69;2126276;81;31071;-67
2021/10/16 04:51:27;;;;;;;18.75;9.58;;;;;;;5.27;80.46;100679.64;2076648;83;33164;-64
2021/10/16 04:54:31;;;;;;;19.62;11.78;;;;;;;5.43;80.49;100689.50;2118416;81;29625;-65
2021/10/16 04:57:38;;;;;;;27.55;10.70;;;;;;;5.54;80.42;100694.58;2093105;83;28459;-65
2021/10/16 05:00:43;;;;;;;20.17;9.98;;;;;;;5.65;80.44;100696.53;2085258;83;29360;-66
2021/10/16 05:03:50;;;;;;;19.57;11.40;;;;;;;5.76;80.35;100700.27;2076766;82;28248;-64
2021/10/16 05:06:57;;;;;;;22.20;11.18;;;;;;;5.86;80.33;100702.27;2057723;83;33011;-66
2021/10/16 05:10:03;;;;;;;25.32;11.30;;;;;;;5.95;80.30;100702.03;2092660;83;29357;-66
2021/10/16 05:13:09;;;;;;;28.45;11.43;;;;;;;6.05;80.25;100701.39;2105322;83;28457;-63
2021/10/16 05:16:15;;;;;;;24.95;11.83;;;;;;;6.14;80.23;100702.48;2121014;81;28388;-66
2021/10/16 05:19:21;;;;;;;21.10;11.28;;;;;;;6.22;80.24;100703.62;2131501;82;31161;-65
2021/10/16 05:22:26;;;;;;;22.98;11.55;;;;;;;6.27;80.13;100704.38;2106280;82;32985;-66
2021/10/16 05:25:32;;;;;;;27.77;12.65;;;;;;;6.34;80.13;100705.09;2062092;83;29349;-67
2021/10/16 05:28:37;;;;;;;28.17;13.15;;;;;;;6.42;80.16;100695.59;2070068;83;27744;-65
2021/10/16 05:31:43;;;;;;;25.52;12.60;;;;;;;6.47;80.05;100699.02;2077432;84;29355;-65
2021/10/16 05:34:49;;;;;;;27.05;12.80;;;;;;;6.53;79.99;100699.72;2100813;83;31024;-64
2021/10/16 05:37:54;;;;;;;23.10;12.20;;;;;;;6.61;80.01;100703.98;2099017;82;33014;-64
2021/10/16 05:40:57;;;;;;;24.02;12.85;;;;;;;6.69;80.04;100711.29;2104219;82;29364;-69
2021/10/16 05:44:02;;;;;;;27.27;13.62;;;;;;;6.74;79.88;100713.38;2129954;82;28031;-65
2021/10/16 05:47:08;;;;;;;22.30;12.30;;;;;;;6.80;79.85;100713.19;2062762;84;29533;-67
2021/10/16 05:50:14;;;;;;;20.70;11.50;;;;;;;6.83;79.66;100717.11;2043565;83;31132;-64
2021/10/16 05:53:20;;;;;;;22.35;12.85;;;;;;;6.91;79.68;100729.35;2054196;83;33804;-64
2021/10/16 05:56:26;;;;;;;26.50;12.58;;;;;;;6.97;79.70;100730.50;2123417;81;29378;-65
2021/10/16 05:59:31;;;;;;;20.17;11.68;;;;;;;7.00;79.57;100735.74;2063916;84;27756;-64
2021/10/16 06:02:37;;;;;;;31.68;11.88;;;;;;;7.04;79.59;100743.19;2093410;82;28678;-65
2021/10/16 06:05:42;;;;;;;23.15;11.28;;;;;;;7.08;79.49;100744.41;2072798;83;32039;-65
2021/10/16 06:08:48;;;;;;;26.65;12.05;;;;;;;7.14;79.58;100750.02;2096571;82;32989;-66
2021/10/16 06:11:50;;;;;;;25.10;12.70;;;;;;;7.23;79.60;100743.09;2103990;81;29418;-64
2021/10/16 06:14:55;;;;;;;22.67;10.80;;;;;;;7.30;79.49;100749.11;2111339;83;28459;-65
2021/10/16 06:18:04;;;;;;;25.17;11.53;;;;;;;7.37;79.43;100746.70;2120650;82;29592;-66
2021/10/16 06:21:08;;;;;;;20.62;11.25;;;;;;;7.43;79.37;100753.19;2085435;82;31104;-65
2021/10/16 06:24:13;;;;;;;18.57;10.38;;;;;;;7.50;79.11;100763.22;2085179;83;32977;-65
2021/10/16 06:27:18;;;;;;;22.07;11.05;;;;;;;7.55;79.10;100760.41;2029208;84;29341;-64
2021/10/16 06:30:23;;;;;;;22.30;11.40;;;;;;;7.57;79.00;100763.43;2053703;83;33550;-64
2021/10/16 06:33:29;;;;;;;20.88;10.40;;;;;;;7.63;79.01;100767.70;2085931;83;29882;-65
2021/10/16 06:36:34;;;;;;;20.12;10.10;;;;;;;7.70;78.88;100772.39;2097704;82;31083;-65
2021/10/16 06:39:40;;;;;;;26.15;10.18;;;;;;;7.79;78.91;100779.23;2093437;83;32986;-65
2021/10/16 06:42:46;;;;;;;26.75;10.32;;;;;;;7.87;78.73;100781.23;2095807;83;29372;-66
2021/10/16 06:45:52;;;;;;;23.20;10.03;;;;;;;7.93;78.58;100783.72;2111022;83;27845;-65
2021/10/16 06:48:56;;;;;;;22.25;9.68;;;;;;;7.95;78.55;100785.84;2145136;81;30006;-66
2021/10/16 06:52:02;;;;;;;23.38;11.40;;;;;;;7.99;78.31;100792.84;2104040;83;31070;-65
2021/10/16 06:55:07;;;;;;;19.45;11.15;;;;;;;8.00;78.19;100794.59;2108518;83;33797;-66
2021/10/16 06:58:13;;;;;;;25.82;10.35;;;;;;;8.08;78.49;100800.17;2108893;83;29368;-66
2021/10/16 07:01:15;;;;;;;18.15;10.05;;;;;;;8.14;78.40;100806.63;2081234;84;27696;-66
2021/10/16 07:04:20;;;;;;;19.82;9.20;;;;;;;8.24;78.37;100808.10;2079150;84;30021;-65
2021/10/16 07:07:26;;;;;;;24.85;9.58;;;;;;;8.32;78.30;100806.05;2161972;81;31220;-67
2021/10/16 07:10:32;;;;;;;21.87;9.60;;;;;;;8.39;77.93;100811.20;2166619;81;33765;-65
2021/10/16 07:13:40;;;;;;;19.32;8.60;;;;;;;8.45;77.77;100805.64;2160101;81;30143;-66
2021/10/16 07:16:44;;;;;;;16.10;9.00;;;;;;;8.50;77.83;100808.63;2142114;81;27854;-66
2021/10/16 07:19:52;;;;;;;18.37;8.90;;;;;;;8.59;77.71;100809.23;2101025;83;29627;-65
2021/10/16 07:22:57;;;;;;;25.50;10.25;;;;;;;8.66;77.53;100806.78;2095526;82;32248;-66
2021/10/16 07:26:03;;;;;;;23.65;9.55;;;;;;;8.72;77.45;100819.05;2083325;83;33155;-65
2021/10/16 07:29:06;;;;;;;20.30;8.88;;;;;;;8.79;77.28;100812.12;2076569;83;28833;-65
2021/10/16 07:32:13;;;;;;;20.02;9.20;;;;;;;8.87;77.36;100819.87;2104395;83;27705;-66
2021/10/16 07:35:19;;;;;;;19.42;9.25;;;;;;;8.94;76.98;100821.86;2089136;83;28667;-66
2021/10/16 07:38:25;;;;;;;21.15;9.38;;;;;;;8.93;76.66;100825.02;2062520;84;31830;-66
2021/10/16 07:41:27;;;;;;;24.15;8.88;;;;;;;8.99;76.71;100829.72;2130950;82;32956;-66
2021/10/16 07:44:33;;;;;;;21.35;9.43;;;;;;;9.07;76.85;100835.20;2107101;83;29762;-65
2021/10/16 07:47:37;;;;;;;18.27;9.73;;;;;;;9.15;76.77;100834.94;2082966;83;27715;-66
2021/10/16 07:50:42;;;;;;;19.60;9.73;;;;;;;9.21;76.81;100840.08;2100748;82;28696;-65
2021/10/16 07:53:48;;;;;;;17.95;9.05;;;;;;;9.25;76.51;100836.38;2088302;84;30481;-66
2021/10/16 07:56:53;;;;;;;22.73;10.43;;;;;;;9.34;76.53;100839.64;2089222;83;33017;-65
2021/10/16 07:59:58;;;;;;;19.98;9.53;;;;;;;9.45;76.59;100844.60;2077564;83;29469;-67
2021/10/16 08:03:05;;;;;;;14.65;8.45;;;;;;;9.53;76.35;100852.76;2159078;81;28252;-66
2021/10/16 08:06:10;;;;;;;15.28;8.20;;;;;;;9.64;76.34;100856.83;2141995;81;28659;-67
2021/10/16 08:09:16;;;;;;;18.02;7.58;;;;;;;9.67;75.98;100862.96;2165056;81;31882;-64
2021/10/16 08:12:22;;;;;;;19.48;7.55;;;;;;;9.71;75.51;100870.41;2164624;81;33592;-66
2021/10/16 08:15:27;;;;;;;17.73;7.80;;;;;;;9.69;75.55;100867.77;2159794;81;29352;-66
2021/10/16 08:18:33;;;;;;;25.02;9.30;;;;;;;9.71;75.30;100868.59;2121438;82;27635;-67
2021/10/16 08:21:39;;;;;;;17.45;7.78;;;;;;;9.75;75.23;100871.16;2108518;83;28640;-66
2021/10/16 08:24:43;;;;;;;19.48;9.25;;;;;;;9.78;74.82;100877.25;2096130;82;31850;-68
2021/10/16 08:27:48;;;;;;;21.82;9.15;;;;;;;9.78;74.94;100874.58;2110662;82;33036;-68
2021/10/16 08:30:53;;;;;;;21.52;8.73;;;;;;;9.82;74.87;100874.02;2112493;82;30097;-67
2021/10/16 08:33:57;;;;;;;32.65;13.45;;;;;;;9.88;74.82;100877.34;2109003;82;28481;-66
2021/10/16 08:37:02;;;;;;;15.58;8.58;;;;;;;9.88;74.44;100881.36;2113156;82;28685;-66
2021/10/16 08:40:09;;;;;;;21.93;9.80;;;;;;;9.90;74.15;100881.77;2125546;81;31026;-67
2021/10/16 08:43:15;;;;;;;20.60;10.80;;;;;;;9.90;74.25;100881.77;2129296;81;33785;-66
2021/10/16 08:46:20;;;;;;;22.25;9.38;;;;;;;9.93;74.31;100887.86;2106529;81;29389;-68
2021/10/16 08:49:25;;;;;;;21.45;10.72;;;;;;;9.98;74.40;100888.58;2106784;81;27943;-68
2021/10/16 08:52:31;;;;;;;20.48;9.98;;;;;;;10.03;74.32;100886.58;2092331;82;30440;-65
2021/10/16 08:55:36;;;;;;;26.82;10.58;;;;;;;10.06;74.02;100889.62;2087498;83;30664;-66
2021/10/16 08:58:41;;;;;;;26.80;10.30;;;;;;;10.08;74.24;100894.45;2075323;82;33806;-66
2021/10/16 09:02:03;;;;;;;21.93;8.15;;;;;;;10.18;74.09;100897.17;2085155;82;30299;-67
2021/10/16 09:05:15;;;;;;;26.35;9.00;;;;;;;10.23;73.71;100899.67;2090814;83;27781;-67
2021/10/16 09:08:34;;;;;;;18.23;8.18;;;;;;;10.28;73.48;100904.39;2096589;83;29505;-67
2021/10/16 09:11:45;;;;;;;24.23;8.60;;;;;;;10.38;73.56;100902.68;2106580;82;31036;-67
2021/10/16 09:14:50;;;;;;;22.20;9.20;;;;;;;10.52;73.26;100896.34;2077102;82;34106;-67
2021/10/16 09:18:07;;;;;;;23.42;10.70;;;;;;;10.60;73.04;100895.58;2078603;83;31841;-66
2021/10/16 09:21:17;;;;;;;20.48;9.35;;;;;;;10.77;73.17;100902.06;2082837;82;27776;-67
2021/10/16 09:24:29;;;;;;;22.17;8.95;;;;;;;10.94;72.69;100902.70;2078522;82;28679;-68
2021/10/16 09:27:32;;;;;;;22.77;9.90;;;;;;;11.05;72.60;100902.25;2111285;82;31076;-65
2021/10/16 09:30:38;;;;;;;21.68;9.25;;;;;;;11.25;72.43;100903.62;2145127;82;34200;-66
2021/10/16 09:33:50;;;;;;;17.57;7.45;;;;;;;11.38;72.21;100910.69;2153932;82;29344;-67
2021/10/16 09:36:57;;;;;;;19.73;7.75;;;;;;;11.57;72.09;100910.34;2126156;82;27935;-66
2021/10/16 09:40:01;;;;;;;19.95;6.95;;;;;;;11.75;71.92;100911.36;2090535;82;28690;-68
2021/10/16 09:43:19;;;;;;;22.55;8.03;;;;;;;11.96;71.93;100913.05;2105789;82;31208;-66
2021/10/16 09:46:25;;;;;;;17.23;7.60;;;;;;;12.10;71.59;100913.80;2093571;82;32934;-68
2021/10/16 09:49:39;;;;;;;17.92;7.90;;;;;;;12.25;71.28;100912.69;2162163;81;30154;-68
2021/10/16 09:52:45;;;;;;;17.55;6.95;;;;;;;12.40;70.90;100913.30;2165943;81;27825;-67
2021/10/16 09:55:51;;;;;;;18.75;7.03;;;;;;;12.45;70.68;100907.25;2166401;81;28829;-67
2021/10/16 09:58:56;;;;;;;13.03;7.25;;;;;;;12.63;70.29;100914.03;2130907;81;31039;-67
2021/10/16 10:02:03;;;;;;;21.85;8.98;;;;;;;12.69;69.90;100906.98;2065859;83;33006;-66
2021/10/16 10:05:09;;;;;;;15.65;8.13;;;;;;;12.67;69.54;100906.67;2056083;83;30233;-69
2021/10/16 10:08:16;;;;;;;15.00;7.10;;;;;;;12.59;69.20;100904.36;2086383;83;28113;-67
2021/10/16 10:11:22;;;;;;;19.25;8.03;;;;;;;12.47;68.54;100905.81;2138197;81;28689;-66
2021/10/16 10:14:25;;;;;;;20.68;7.47;;;;;;;12.47;68.98;100903.12;2132506;81;31702;-66
2021/10/16 10:17:33;;;;;;;22.98;9.43;;;;;;;12.68;69.83;100900.36;2101108;83;33121;-67
2021/10/16 10:20:36;;;;;;;17.05;7.55;;;;;;;12.72;68.98;100891.20;2122041;83;29362;-64
2021/10/16 10:23:55;;;;;;;16.35;7.03;;;;;;;12.72;68.79;100895.23;2123094;83;27722;-65
2021/10/16 10:27:03;;;;;;;19.27;8.25;;;;;;;12.61;68.08;100895.27;2087353;83;29584;-66
2021/10/16 10:30:10;;;;;;;18.45;7.67;;;;;;;12.44;67.65;100892.06;2062065;84;33241;-66
2021/10/16 10:33:23;;;;;;;20.70;8.98;;;;;;;12.30;67.94;100895.40;2033787;85;34486;-65
2021/10/16 10:36:28;;;;;;;18.75;7.55;;;;;;;12.21;67.76;100893.62;2076881;84;29360;-66
2021/10/16 10:39:39;;;;;;;18.42;6.92;;;;;;;12.08;67.56;100888.83;2053899;85;27851;-66
2021/10/16 10:42:44;;;;;;;18.70;7.45;;;;;;;11.94;67.58;100891.25;2105566;83;28671;-65
2021/10/16 10:45:50;;;;;;;20.05;6.70;;;;;;;11.87;68.03;100896.03;2153440;81;31065;-65
2021/10/16 10:49:10;;;;;;;13.88;6.55;;;;;;;11.89;68.33;100898.17;2100692;82;32989;-65
2021/10/16 10:52:15;;;;;;;14.78;5.58;;;;;;;11.94;68.06;100894.80;2111044;82;30168;-66
2021/10/16 10:55:18;;;;;;;15.32;5.70;;;;;;;11.95;67.77;100890.31;2088416;82;27739;-66
2021/10/16 10:58:24;;;;;;;16.75;6.83;;;;;;;11.98;67.78;100888.37;2086027;83;28864;-65
2021/10/16 11:02:03;;;;;;;11.88;5.25;;;;;;;12.02;67.58;100889.09;2084006;83;31845;-63
2021/10/16 11:05:34;;;;;;;16.80;5.60;;;;;;;12.00;67.46;100880.23;2052327;85;34155;-66
2021/10/16 11:08:38;;;;;;;18.55;7.00;;;;;;;12.00;67.50;100870.38;1995856;88;29374;-65
2021/10/16 11:11:50;;;;;;;18.02;5.47;;;;;;;12.06;67.58;100871.05;1984664;88;28613;-65
2021/10/16 11:14:57;;;;;;;13.35;5.78;;;;;;;12.13;67.74;100869.80;1958769;89;28669;-67
2021/10/16 11:18:03;;;;;;;15.50;6.03;;;;;;;12.21;67.45;100870.33;1983819;88;31234;-66
2021/10/16 11:21:11;;;;;;;15.50;5.80;;;;;;;12.30;67.02;100869.02;1957140;88;32994;-65
2021/10/16 11:24:16;;;;;;;22.22;6.72;;;;;;;12.30;66.58;100866.34;2064763;85;30103;-63
2021/10/16 11:27:24;;;;;;;;;;;;;;;12.29;66.55;100860.56;2056305;86;28118;-64
2021/10/16 11:30:30;;;;;;;23.92;11.20;;;;;;;12.29;66.54;100858.73;2053265;85;28743;-65
2021/10/16 11:33:40;;;;;;;18.27;8.40;;;;;;;12.29;66.46;100856.53;2056018;85;32099;-65
2021/10/16 11:36:51;;;;;;;12.03;4.87;;;;;;;12.30;66.17;100849.73;2050769;86;33064;-65
2021/10/16 11:40:04;;;;;;;15.03;6.47;;;;;;;12.23;65.59;100850.98;2064892;85;30111;-64
2021/10/16 11:43:21;;;;;;;16.32;6.47;;;;;;;12.20;65.62;100842.18;2121855;81;27879;-65
2021/10/16 11:46:28;;;;;;;12.78;5.92;;;;;;;12.18;65.58;100840.92;2053068;83;29137;-63
2021/10/16 11:49:30;;;;;;;16.37;10.58;;;;;;;12.18;65.15;100841.38;2077688;82;31025;-63
2021/10/16 11:52:36;;;;;;;23.65;11.28;;;;;;;12.13;64.88;100838.92;2124179;82;33766;-66
2021/10/16 11:55:48;;;;;;;18.52;8.08;;;;;;;12.09;65.08;100834.17;2128798;81;29374;-66
2021/10/16 11:58:55;;;;;;;16.37;9.03;;;;;;;12.11;64.84;100832.74;2138047;81;27776;-65
2021/10/16 12:02:01;;;;;;;22.82;10.78;;;;;;;12.09;64.75;100825.23;2167220;81;28641;-66
2021/10/16 12:05:13;;;;;;;13.13;5.80;;;;;;;12.11;64.61;100822.89;2132068;81;31153;-64
2021/10/16 12:08:23;;;;;;;9.08;3.75;;;;;;;12.14;64.60;100825.89;2156958;81;34020;-64
2021/10/16 12:11:33;;;;;;;8.30;4.08;;;;;;;12.14;64.13;100825.89;2120050;83;29943;-64
2021/10/16 12:14:39;;;;;;;16.02;6.47;;;;;;;12.15;64.33;100828.98;2080099;84;27785;-63
2021/10/16 12:17:47;;;;;;;13.88;6.37;;;;;;;12.17;63.98;100829.77;2077851;84;28632;-64
2021/10/16 12:21:03;;;;;;;13.08;6.37;;;;;;;12.21;63.89;100826.00;2118200;83;31085;-64
2021/10/16 12:24:23;;;;;;;12.13;4.30;;;;;;;12.29;63.80;100829.66;2075845;84;33011;-64
2021/10/16 12:27:33;;;;;;;10.00;4.10;;;;;;;12.40;63.68;100827.81;2120891;82;29775;-65
2021/10/16 12:30:38;;;;;;;13.38;4.83;;;;;;;12.55;63.93;100822.12;2092858;83;27717;-65
2021/10/16 12:34:10;;;;;;;9.08;3.70;;;;;;;12.69;63.68;100820.11;2167355;81;28673;-65
2021/10/16 12:37:16;;;;;;;10.93;4.30;;;;;;;12.86;63.54;100821.47;2163627;81;31119;-63
2021/10/16 12:40:21;;;;;;;8.60;3.55;;;;;;;13.03;63.01;100813.02;2144204;81;32981;-64
2021/10/16 12:43:28;;;;;;;15.55;3.98;;;;;;;13.13;62.57;100810.72;2136772;81;29473;-65
2021/10/16 12:46:33;;;;;;;9.50;4.05;;;;;;;13.24;62.54;100803.44;2128855;83;28214;-64
2021/10/16 12:49:47;;;;;;;10.43;4.50;;;;;;;13.35;62.77;100804.58;2125555;83;29535;-65
2021/10/16 12:52:56;;;;;;;6.37;3.40;;;;;;;13.47;62.92;100803.59;2129805;83;30903;-66
2021/10/16 12:56:17;;;;;;;11.05;4.10;;;;;;;13.55;62.49;100799.13;2135658;81;33927;-65
2021/10/16 12:59:23;;;;;;;11.10;5.30;;;;;;;13.61;62.20;100797.44;2164550;81;29436;-64
2021/10/16 13:02:28;;;;;;;14.85;5.10;;;;;;;13.68;62.04;100798.36;2134550;81;27694;-64
2021/10/16 13:05:30;;;;;;;15.32;5.08;;;;;;;13.72;62.10;100800.89;2167877;81;29502;-65
2021/10/16 13:08:36;;;;;;;14.63;5.17;;;;;;;13.73;61.43;100795.90;2155509;81;31342;-65
2021/10/16 13:11:41;;;;;;;16.70;6.17;;;;;;;13.74;61.50;100801.19;2146229;81;33051;-64
2021/10/16 13:14:46;;;;;;;16.30;5.10;;;;;;;13.75;61.20;100800.73;2164716;81;30214;-64
2021/10/16 13:17:52;;;;;;;14.53;6.37;;;;;;;13.76;61.25;100794.39;2135699;81;27744;-65
2021/10/16 13:20:58;;;;;;;12.23;5.15;;;;;;;13.80;61.06;100798.66;2047576;84;30099;-64
2021/10/16 13:23:59;;;;;;;11.83;5.25;;;;;;;13.76;60.67;100799.28;2068869;84;31061;-65
2021/10/16 13:27:05;;;;;;;11.30;4.87;;;;;;;13.70;60.54;100798.75;2063272;83;33132;-65
2021/10/16 13:30:10;;;;;;;15.28;5.65;;;;;;;13.62;60.42;100801.41;2093834;83;30121;-64
2021/10/16 13:33:18;;;;;;;12.98;5.08;;;;;;;13.56;59.83;100805.77;2032525;84;27744;-64
2021/10/16 13:36:24;;;;;;;13.58;5.70;;;;;;;13.49;60.53;100801.19;2057264;84;28673;-65
2021/10/16 13:39:28;;;;;;;14.18;3.75;;;;;;;13.48;60.67;100800.80;2095548;82;31081;-64
2021/10/16 13:42:30;;;;;;;10.60;3.37;;;;;;;13.49;60.57;100807.92;2133315;82;33781;-64
2021/10/16 13:45:35;;;;;;;8.50;2.90;;;;;;;13.51;60.10;100806.02;2160896;81;29415;-64
2021/10/16 13:48:38;;;;;;;5.70;3.62;;;;;;;13.54;60.56;100803.63;2160422;81;27864;-64
2021/10/16 13:51:43;;;;;;;8.15;3.62;;;;;;;13.56;60.33;100803.08;2147045;81;29591;-65
2021/10/16 13:54:48;;;;;;;5.67;3.12;;;;;;;13.55;60.12;100801.33;2115880;82;31081;-64
2021/10/16 13:57:51;;;;;;;11.12;2.83;;;;;;;13.47;59.10;100800.89;2115346;82;33012;-65
2021/10/16 14:00:57;;;;;;;9.65;4.60;;;;;;;13.40;59.43;100802.13;2108251;83;29361;-66
2021/10/16 14:04:00;;;;;;;10.90;3.67;;;;;;;13.32;59.00;100802.54;2160886;81;27579;-66
2021/10/16 14:07:05;;;;;;;12.65;3.65;;;;;;;13.26;59.17;100799.70;2142195;81;28137;-65
2021/10/16 14:10:11;;;;;;;10.08;2.98;;;;;;;13.22;59.05;100798.11;2099896;83;31048;-67
2021/10/16 14:13:17;;;;;;;8.35;3.67;;;;;;;13.17;59.50;100797.02;2132443;82;32988;-66
2021/10/16 14:16:22;;;;;;;6.47;3.08;;;;;;;13.15;59.26;100794.03;2137348;81;29352;-65
2021/10/16 14:19:28;;;;;;;7.47;3.83;;;;;;;13.11;59.59;100793.78;2104263;82;27769;-65
2021/10/16 14:22:34;;;;;;;5.78;3.25;;;;;;;13.09;59.70;100792.99;2142888;82;28663;-66
2021/10/16 14:25:37;;;;;;;9.15;4.12;;;;;;;13.07;59.86;100792.59;2128466;82;31020;-66